sensor_id;sensor_type;location;lat;lon;timestamp;P1;durP1;ratioP1;P2;durP2;ratioP2
51754;SDS011;37829;50.370;30.428;2022-12-07T00:01:04;11.63;;;6.20;;
51754;SDS011;37829;50.370;30.428;2022-12-07T00:02:06;15.57;;;6.85;;
51754;SDS011;37829;50.370;30.428;2022-12-07T00:03:06;14.13;;;6.67;;
51754;SDS011;37829;50.370;30.428;2022-12-07T00:04:09;14.05;;;7.15;;
51754;SDS011;37829;50.370;30.428;2022-12-07T00:05:11;11.90;;;6.72;;
51754;SDS011;37829;50.370;30.428;2022-12-07T00:06:12;15.13;;;6.03;;
51754;SDS011;37829;50.370;30.428;2022-12-07T00:08:15;16.65;;;6.47;;
51754;SDS011;37829;50.370;30.428;2022-12-07T00:09:16;14.23;;;6.45;;
51754;SDS011;37829;50.370;30.428;2022-12-07T00:11:19;11.85;;;5.85;;
51754;SDS011;37829;50.370;30.428;2022-12-07T00:12:20;12.73;;;6.35;;
51754;SDS011;37829;50.370;30.428;2022-12-07T00:13:21;14.60;;;7.60;;
51754;SDS011;37829;50.370;30.428;2022-12-07T00:14:22;12.77;;;6.28;;
51754;SDS011;37829;50.370;30.428;2022-12-07T00:15:23;10.90;;;6.03;;
51754;SDS011;37829;50.370;30.428;2022-12-07T00:16:26;13.57;;;6.50;;
51754;SDS011;37829;50.370;30.428;2022-12-07T00:17:27;11.43;;;6.10;;
51754;SDS011;37829;50.370;30.428;2022-12-07T00:18:28;13.00;;;6.68;;
51754;SDS011;37829;50.370;30.428;2022-12-07T00:19:29;13.90;;;6.43;;
51754;SDS011;37829;50.370;30.428;2022-12-07T00:20:30;14.65;;;6.25;;
51754;SDS011;37829;50.370;30.428;2022-12-07T00:21:32;12.37;;;5.77;;
51754;SDS011;37829;50.370;30.428;2022-12-07T00:22:34;11.40;;;6.60;;
51754;SDS011;37829;50.370;30.428;2022-12-07T00:23:34;13.60;;;6.73;;
51754;SDS011;37829;50.370;30.428;2022-12-07T00:24:36;16.38;;;6.85;;
51754;SDS011;37829;50.370;30.428;2022-12-07T00:25:37;12.45;;;6.55;;
51754;SDS011;37829;50.370;30.428;2022-12-07T00:26:38;11.52;;;6.72;;
51754;SDS011;37829;50.370;30.428;2022-12-07T00:27:40;12.25;;;6.90;;
51754;SDS011;37829;50.370;30.428;2022-12-07T00:28:41;12.90;;;6.53;;
51754;SDS011;37829;50.370;30.428;2022-12-07T00:29:42;12.30;;;6.47;;
51754;SDS011;37829;50.370;30.428;2022-12-07T00:30:43;14.47;;;6.37;;
51754;SDS011;37829;50.370;30.428;2022-12-07T00:31:45;19.33;;;8.52;;
51754;SDS011;37829;50.370;30.428;2022-12-07T00:32:46;11.10;;;6.78;;
51754;SDS011;37829;50.370;30.428;2022-12-07T00:33:47;14.27;;;6.53;;
51754;SDS011;37829;50.370;30.428;2022-12-07T00:34:48;14.10;;;7.13;;
51754;SDS011;37829;50.370;30.428;2022-12-07T00:35:54;11.38;;;7.28;;
51754;SDS011;37829;50.370;30.428;2022-12-07T00:36:55;16.10;;;6.70;;
51754;SDS011;37829;50.370;30.428;2022-12-07T00:37:56;12.55;;;6.75;;
51754;SDS011;37829;50.370;30.428;2022-12-07T00:38:57;10.97;;;5.93;;
51754;SDS011;37829;50.370;30.428;2022-12-07T00:39:59;12.55;;;6.70;;
51754;SDS011;37829;50.370;30.428;2022-12-07T00:41:01;13.25;;;7.80;;
51754;SDS011;37829;50.370;30.428;2022-12-07T00:42:03;16.75;;;7.57;;
51754;SDS011;37829;50.370;30.428;2022-12-07T00:43:04;13.32;;;6.70;;
51754;SDS011;37829;50.370;30.428;2022-12-07T00:44:05;15.50;;;6.85;;
51754;SDS011;37829;50.370;30.428;2022-12-07T00:45:06;13.90;;;6.22;;
51754;SDS011;37829;50.370;30.428;2022-12-07T00:46:07;12.20;;;6.40;;
51754;SDS011;37829;50.370;30.428;2022-12-07T00:47:09;14.85;;;6.78;;
51754;SDS011;37829;50.370;30.428;2022-12-07T00:48:10;11.63;;;6.35;;
51754;SDS011;37829;50.370;30.428;2022-12-07T00:49:12;13.38;;;5.63;;
51754;SDS011;37829;50.370;30.428;2022-12-07T00:50:12;14.60;;;7.03;;
51754;SDS011;37829;50.370;30.428;2022-12-07T00:51:14;12.50;;;6.10;;
51754;SDS011;37829;50.370;30.428;2022-12-07T00:52:15;12.80;;;7.30;;
51754;SDS011;37829;50.370;30.428;2022-12-07T00:53:17;14.63;;;7.13;;
51754;SDS011;37829;50.370;30.428;2022-12-07T00:54:18;11.60;;;5.40;;
51754;SDS011;37829;50.370;30.428;2022-12-07T00:55:19;13.57;;;6.45;;
51754;SDS011;37829;50.370;30.428;2022-12-07T00:56:20;12.32;;;6.60;;
51754;SDS011;37829;50.370;30.428;2022-12-07T00:57:22;12.23;;;6.85;;
51754;SDS011;37829;50.370;30.428;2022-12-07T00:58:23;10.70;;;6.53;;
51754;SDS011;37829;50.370;30.428;2022-12-07T00:59:24;18.33;;;6.70;;
51754;SDS011;37829;50.370;30.428;2022-12-07T01:00:25;14.05;;;6.60;;
51754;SDS011;37829;50.370;30.428;2022-12-07T01:01:27;12.65;;;5.50;;
51754;SDS011;37829;50.370;30.428;2022-12-07T01:03:30;12.02;;;5.65;;
51754;SDS011;37829;50.370;30.428;2022-12-07T01:04:32;10.95;;;5.80;;
51754;SDS011;37829;50.370;30.428;2022-12-07T01:05:34;15.57;;;6.55;;
51754;SDS011;37829;50.370;30.428;2022-12-07T01:06:35;16.17;;;6.57;;
51754;SDS011;37829;50.370;30.428;2022-12-07T01:07:36;12.07;;;5.70;;
51754;SDS011;37829;50.370;30.428;2022-12-07T01:08:37;12.50;;;7.17;;
51754;SDS011;37829;50.370;30.428;2022-12-07T01:09:38;14.23;;;6.72;;
51754;SDS011;37829;50.370;30.428;2022-12-07T01:10:39;13.57;;;7.47;;
51754;SDS011;37829;50.370;30.428;2022-12-07T01:11:40;11.73;;;6.15;;
51754;SDS011;37829;50.370;30.428;2022-12-07T01:12:41;11.37;;;6.83;;
51754;SDS011;37829;50.370;30.428;2022-12-07T01:13:42;13.00;;;6.05;;
51754;SDS011;37829;50.370;30.428;2022-12-07T01:14:43;15.88;;;7.15;;
51754;SDS011;37829;50.370;30.428;2022-12-07T01:15:44;12.60;;;7.18;;
51754;SDS011;37829;50.370;30.428;2022-12-07T01:16:45;14.35;;;7.47;;
51754;SDS011;37829;50.370;30.428;2022-12-07T01:17:46;11.50;;;6.43;;
51754;SDS011;37829;50.370;30.428;2022-12-07T01:18:49;12.88;;;6.10;;
51754;SDS011;37829;50.370;30.428;2022-12-07T01:19:50;14.93;;;8.05;;
51754;SDS011;37829;50.370;30.428;2022-12-07T05:38:16;27.78;;;14.20;;
51754;SDS011;37829;50.370;30.428;2022-12-07T05:39:18;22.17;;;11.13;;
51754;SDS011;37829;50.370;30.428;2022-12-07T05:40:18;23.00;;;11.83;;
51754;SDS011;37829;50.370;30.428;2022-12-07T05:41:20;21.48;;;9.65;;
51754;SDS011;37829;50.370;30.428;2022-12-07T05:42:50;27.42;;;11.55;;
51754;SDS011;37829;50.370;30.428;2022-12-07T05:43:51;22.65;;;10.07;;
51754;SDS011;37829;50.370;30.428;2022-12-07T05:44:52;18.80;;;10.57;;
51754;SDS011;37829;50.370;30.428;2022-12-07T05:45:53;21.42;;;10.25;;
51754;SDS011;37829;50.370;30.428;2022-12-07T05:46:54;22.20;;;10.43;;
51754;SDS011;37829;50.370;30.428;2022-12-07T05:47:55;25.92;;;11.80;;
51754;SDS011;37829;50.370;30.428;2022-12-07T05:48:57;21.02;;;11.25;;
51754;SDS011;37829;50.370;30.428;2022-12-07T05:49:58;21.88;;;12.02;;
51754;SDS011;37829;50.370;30.428;2022-12-07T05:50:59;24.63;;;11.38;;
51754;SDS011;37829;50.370;30.428;2022-12-07T05:52:00;20.73;;;11.10;;
51754;SDS011;37829;50.370;30.428;2022-12-07T05:53:01;25.55;;;11.80;;
51754;SDS011;37829;50.370;30.428;2022-12-07T05:54:02;23.55;;;9.82;;
51754;SDS011;37829;50.370;30.428;2022-12-07T05:55:04;18.27;;;9.65;;
51754;SDS011;37829;50.370;30.428;2022-12-07T05:56:07;37.10;;;12.15;;
51754;SDS011;37829;50.370;30.428;2022-12-07T05:57:08;20.47;;;10.33;;
51754;SDS011;37829;50.370;30.428;2022-12-07T05:58:09;19.85;;;9.43;;
51754;SDS011;37829;50.370;30.428;2022-12-07T05:59:28;21.73;;;9.23;;
51754;SDS011;37829;50.370;30.428;2022-12-07T06:00:29;17.97;;;9.43;;
51754;SDS011;37829;50.370;30.428;2022-12-07T06:01:30;19.30;;;8.57;;
51754;SDS011;37829;50.370;30.428;2022-12-07T06:02:31;25.92;;;12.15;;
51754;SDS011;37829;50.370;30.428;2022-12-07T06:03:32;17.63;;;9.07;;
51754;SDS011;37829;50.370;30.428;2022-12-07T06:04:34;20.40;;;9.73;;
51754;SDS011;37829;50.370;30.428;2022-12-07T06:05:36;22.58;;;10.55;;
51754;SDS011;37829;50.370;30.428;2022-12-07T06:06:36;20.73;;;9.63;;
51754;SDS011;37829;50.370;30.428;2022-12-07T06:07:38;23.67;;;9.70;;
51754;SDS011;37829;50.370;30.428;2022-12-07T06:08:39;24.23;;;11.75;;
51754;SDS011;37829;50.370;30.428;2022-12-07T06:09:40;20.98;;;10.13;;
51754;SDS011;37829;50.370;30.428;2022-12-07T06:10:42;19.10;;;9.65;;
51754;SDS011;37829;50.370;30.428;2022-12-07T06:11:42;21.17;;;11.10;;
51754;SDS011;37829;50.370;30.428;2022-12-07T06:13:02;18.33;;;9.00;;
51754;SDS011;37829;50.370;30.428;2022-12-07T06:14:03;18.45;;;9.48;;
51754;SDS011;37829;50.370;30.428;2022-12-07T06:15:04;19.35;;;9.73;;
51754;SDS011;37829;50.370;30.428;2022-12-07T06:16:06;20.77;;;9.73;;
51754;SDS011;37829;50.370;30.428;2022-12-07T06:17:07;19.75;;;8.85;;
51754;SDS011;37829;50.370;30.428;2022-12-07T06:18:09;18.00;;;9.02;;
51754;SDS011;37829;50.370;30.428;2022-12-07T06:19:09;14.68;;;8.30;;
51754;SDS011;37829;50.370;30.428;2022-12-07T06:20:11;17.05;;;9.73;;
51754;SDS011;37829;50.370;30.428;2022-12-07T06:21:12;18.40;;;7.80;;
51754;SDS011;37829;50.370;30.428;2022-12-07T06:22:13;19.33;;;10.18;;
51754;SDS011;37829;50.370;30.428;2022-12-07T06:23:14;17.88;;;10.23;;
51754;SDS011;37829;50.370;30.428;2022-12-07T06:24:15;21.27;;;8.77;;
51754;SDS011;37829;50.370;30.428;2022-12-07T06:25:17;19.50;;;10.70;;
51754;SDS011;37829;50.370;30.428;2022-12-07T06:26:18;20.42;;;10.60;;
51754;SDS011;37829;50.370;30.428;2022-12-07T06:27:19;18.52;;;9.55;;
51754;SDS011;37829;50.370;30.428;2022-12-07T06:28:20;15.90;;;8.75;;
51754;SDS011;37829;50.370;30.428;2022-12-07T06:29:21;28.42;;;14.00;;
51754;SDS011;37829;50.370;30.428;2022-12-07T06:30:22;38.17;;;16.15;;
51754;SDS011;37829;50.370;30.428;2022-12-07T06:31:23;33.47;;;13.43;;
51754;SDS011;37829;50.370;30.428;2022-12-07T06:32:25;28.17;;;14.43;;
51754;SDS011;37829;50.370;30.428;2022-12-07T06:33:26;61.63;;;22.15;;
51754;SDS011;37829;50.370;30.428;2022-12-07T06:34:27;36.75;;;15.88;;
51754;SDS011;37829;50.370;30.428;2022-12-07T06:35:28;45.92;;;18.63;;
51754;SDS011;37829;50.370;30.428;2022-12-07T06:36:29;77.13;;;29.30;;
51754;SDS011;37829;50.370;30.428;2022-12-07T06:37:31;46.67;;;15.98;;
51754;SDS011;37829;50.370;30.428;2022-12-07T06:38:32;40.55;;;15.90;;
51754;SDS011;37829;50.370;30.428;2022-12-07T06:39:33;35.95;;;12.88;;
51754;SDS011;37829;50.370;30.428;2022-12-07T06:40:35;66.72;;;25.05;;
51754;SDS011;37829;50.370;30.428;2022-12-07T06:41:36;61.60;;;19.50;;
51754;SDS011;37829;50.370;30.428;2022-12-07T06:42:37;83.22;;;26.23;;
51754;SDS011;37829;50.370;30.428;2022-12-07T06:43:38;43.73;;;18.60;;
51754;SDS011;37829;50.370;30.428;2022-12-07T06:44:39;41.80;;;15.57;;
51754;SDS011;37829;50.370;30.428;2022-12-07T06:45:40;28.05;;;14.20;;
51754;SDS011;37829;50.370;30.428;2022-12-07T06:46:41;25.75;;;13.02;;
51754;SDS011;37829;50.370;30.428;2022-12-07T06:47:43;25.83;;;13.48;;
51754;SDS011;37829;50.370;30.428;2022-12-07T06:48:46;27.15;;;17.80;;
51754;SDS011;37829;50.370;30.428;2022-12-07T06:49:47;28.63;;;11.77;;
51754;SDS011;37829;50.370;30.428;2022-12-07T06:50:48;28.55;;;16.90;;
51754;SDS011;37829;50.370;30.428;2022-12-07T06:51:55;19.38;;;9.88;;
51754;SDS011;37829;50.370;30.428;2022-12-07T06:52:56;22.45;;;11.13;;
51754;SDS011;37829;50.370;30.428;2022-12-07T06:53:57;28.20;;;12.23;;
51754;SDS011;37829;50.370;30.428;2022-12-07T06:54:58;28.13;;;17.10;;
51754;SDS011;37829;50.370;30.428;2022-12-07T06:56:00;21.67;;;13.57;;
51754;SDS011;37829;50.370;30.428;2022-12-07T06:57:01;20.10;;;10.63;;
51754;SDS011;37829;50.370;30.428;2022-12-07T06:58:02;22.88;;;13.25;;
51754;SDS011;37829;50.370;30.428;2022-12-07T06:59:04;17.85;;;9.80;;
51754;SDS011;37829;50.370;30.428;2022-12-07T07:00:06;20.17;;;9.80;;
51754;SDS011;37829;50.370;30.428;2022-12-07T07:01:08;20.80;;;10.85;;
51754;SDS011;37829;50.370;30.428;2022-12-07T07:02:09;26.08;;;13.45;;
51754;SDS011;37829;50.370;30.428;2022-12-07T07:03:11;17.80;;;10.40;;
51754;SDS011;37829;50.370;30.428;2022-12-07T10:49:47;32.56;;;18.79;;
51754;SDS011;37829;50.370;30.428;2022-12-07T10:50:56;28.13;;;16.35;;
51754;SDS011;37829;50.370;30.428;2022-12-07T10:51:59;35.97;;;20.58;;
51754;SDS011;37829;50.370;30.428;2022-12-07T10:54:21;30.70;;;16.63;;
51754;SDS011;37829;50.370;30.428;2022-12-07T10:55:39;34.75;;;20.80;;
51754;SDS011;37829;50.370;30.428;2022-12-07T10:56:45;36.63;;;21.92;;
51754;SDS011;37829;50.370;30.428;2022-12-07T10:57:56;34.13;;;18.27;;
51754;SDS011;37829;50.370;30.428;2022-12-07T10:59:10;32.42;;;19.98;;
51754;SDS011;37829;50.370;30.428;2022-12-07T11:00:16;32.35;;;18.58;;
51754;SDS011;37829;50.370;30.428;2022-12-07T11:01:18;30.48;;;19.73;;
51754;SDS011;37829;50.370;30.428;2022-12-07T11:02:25;31.30;;;19.15;;
51754;SDS011;37829;50.370;30.428;2022-12-07T11:03:30;31.58;;;19.10;;
51754;SDS011;37829;50.370;30.428;2022-12-07T11:04:35;33.13;;;17.70;;
51754;SDS011;37829;50.370;30.428;2022-12-07T11:05:40;31.02;;;18.48;;
51754;SDS011;37829;50.370;30.428;2022-12-07T11:06:47;26.38;;;16.88;;
51754;SDS011;37829;50.370;30.428;2022-12-07T11:07:55;27.80;;;13.80;;
51754;SDS011;37829;50.370;30.428;2022-12-07T11:09:21;29.27;;;18.92;;
51754;SDS011;37829;50.370;30.428;2022-12-07T11:10:47;37.03;;;16.67;;
51754;SDS011;37829;50.370;30.428;2022-12-07T11:11:51;36.28;;;19.02;;
51754;SDS011;37829;50.370;30.428;2022-12-07T11:13:02;31.00;;;19.27;;
51754;SDS011;37829;50.370;30.428;2022-12-07T11:14:09;32.45;;;18.17;;
51754;SDS011;37829;50.370;30.428;2022-12-07T11:15:17;30.58;;;18.00;;
51754;SDS011;37829;50.370;30.428;2022-12-07T11:16:21;31.90;;;19.48;;
51754;SDS011;37829;50.370;30.428;2022-12-07T11:17:26;28.48;;;14.50;;
51754;SDS011;37829;50.370;30.428;2022-12-07T11:18:33;30.27;;;18.88;;
51754;SDS011;37829;50.370;30.428;2022-12-07T11:19:40;30.98;;;19.67;;
51754;SDS011;37829;50.370;30.428;2022-12-07T11:20:53;29.40;;;17.15;;
51754;SDS011;37829;50.370;30.428;2022-12-07T11:21:58;29.63;;;17.77;;
51754;SDS011;37829;50.370;30.428;2022-12-07T11:23:01;32.13;;;19.63;;
51754;SDS011;37829;50.370;30.428;2022-12-07T11:24:06;27.15;;;16.95;;
51754;SDS011;37829;50.370;30.428;2022-12-07T11:25:18;30.13;;;19.30;;
51754;SDS011;37829;50.370;30.428;2022-12-07T11:26:33;29.08;;;14.88;;
51754;SDS011;37829;50.370;30.428;2022-12-07T11:27:36;34.70;;;20.35;;
51754;SDS011;37829;50.370;30.428;2022-12-07T11:28:41;32.70;;;17.13;;
51754;SDS011;37829;50.370;30.428;2022-12-07T11:29:49;32.15;;;19.98;;
51754;SDS011;37829;50.370;30.428;2022-12-07T11:30:54;31.50;;;19.95;;
51754;SDS011;37829;50.370;30.428;2022-12-07T11:32:00;34.90;;;18.40;;
51754;SDS011;37829;50.370;30.428;2022-12-07T11:33:09;34.20;;;21.45;;
51754;SDS011;37829;50.370;30.428;2022-12-07T11:34:13;34.25;;;20.98;;
51754;SDS011;37829;50.370;30.428;2022-12-07T11:35:21;32.63;;;18.60;;
51754;SDS011;37829;50.370;30.428;2022-12-07T11:36:30;32.28;;;20.85;;
51754;SDS011;37829;50.370;30.428;2022-12-07T11:37:32;32.05;;;18.88;;
51754;SDS011;37829;50.370;30.428;2022-12-07T11:38:41;32.42;;;16.73;;
51754;SDS011;37829;50.370;30.428;2022-12-07T11:39:44;32.55;;;19.45;;
51754;SDS011;37829;50.370;30.428;2022-12-07T11:40:48;29.35;;;19.70;;
51754;SDS011;37829;50.370;30.428;2022-12-07T11:41:51;31.55;;;19.90;;
51754;SDS011;37829;50.370;30.428;2022-12-07T11:42:55;32.35;;;18.92;;
51754;SDS011;37829;50.370;30.428;2022-12-07T11:43:59;32.67;;;20.33;;
51754;SDS011;37829;50.370;30.428;2022-12-07T11:45:04;28.63;;;14.98;;
51754;SDS011;37829;50.370;30.428;2022-12-07T11:46:12;26.98;;;18.63;;
51754;SDS011;37829;50.370;30.428;2022-12-07T11:47:16;31.05;;;16.77;;
51754;SDS011;37829;50.370;30.428;2022-12-07T11:48:21;28.20;;;18.63;;
51754;SDS011;37829;50.370;30.428;2022-12-07T11:49:24;34.17;;;18.95;;
51754;SDS011;37829;50.370;30.428;2022-12-07T11:50:30;29.70;;;19.05;;
51754;SDS011;37829;50.370;30.428;2022-12-07T11:51:35;30.95;;;18.67;;
51754;SDS011;37829;50.370;30.428;2022-12-07T11:52:40;30.20;;;15.65;;
51754;SDS011;37829;50.370;30.428;2022-12-07T11:53:45;39.28;;;21.05;;
51754;SDS011;37829;50.370;30.428;2022-12-07T11:54:49;33.10;;;20.23;;
51754;SDS011;37829;50.370;30.428;2022-12-07T11:55:52;30.13;;;19.15;;
51754;SDS011;37829;50.370;30.428;2022-12-07T11:56:55;30.55;;;19.15;;
51754;SDS011;37829;50.370;30.428;2022-12-07T11:57:58;29.83;;;18.45;;
51754;SDS011;37829;50.370;30.428;2022-12-07T11:59:06;28.95;;;17.52;;
51754;SDS011;37829;50.370;30.428;2022-12-07T12:00:12;29.30;;;18.85;;
51754;SDS011;37829;50.370;30.428;2022-12-07T12:01:24;29.35;;;17.40;;
51754;SDS011;37829;50.370;30.428;2022-12-07T12:02:28;34.85;;;20.83;;
51754;SDS011;37829;50.370;30.428;2022-12-07T12:03:34;32.28;;;17.65;;
51754;SDS011;37829;50.370;30.428;2022-12-07T12:04:42;34.97;;;19.70;;
51754;SDS011;37829;50.370;30.428;2022-12-07T12:05:46;27.52;;;15.60;;
51754;SDS011;37829;50.370;30.428;2022-12-07T12:06:48;35.45;;;20.90;;
51754;SDS011;37829;50.370;30.428;2022-12-07T12:07:50;32.90;;;20.85;;
51754;SDS011;37829;50.370;30.428;2022-12-07T12:09:14;31.95;;;17.95;;
51754;SDS011;37829;50.370;30.428;2022-12-07T12:10:38;36.75;;;22.42;;
51754;SDS011;37829;50.370;30.428;2022-12-07T12:11:47;32.85;;;20.38;;
51754;SDS011;37829;50.370;30.428;2022-12-07T12:14:38;35.63;;;19.85;;
51754;SDS011;37829;50.370;30.428;2022-12-07T12:15:53;35.08;;;20.55;;
51754;SDS011;37829;50.370;30.428;2022-12-07T12:17:07;36.53;;;22.00;;
51754;SDS011;37829;50.370;30.428;2022-12-07T12:18:19;34.72;;;19.98;;
51754;SDS011;37829;50.370;30.428;2022-12-07T12:19:24;35.90;;;21.50;;
51754;SDS011;37829;50.370;30.428;2022-12-07T12:20:26;33.42;;;20.85;;
51754;SDS011;37829;50.370;30.428;2022-12-07T12:21:30;39.40;;;21.90;;
51754;SDS011;37829;50.370;30.428;2022-12-07T12:22:34;36.80;;;22.35;;
51754;SDS011;37829;50.370;30.428;2022-12-07T12:23:39;27.73;;;14.98;;
51754;SDS011;37829;50.370;30.428;2022-12-07T12:24:42;34.05;;;21.30;;
51754;SDS011;37829;50.370;30.428;2022-12-07T12:25:45;33.90;;;21.13;;
51754;SDS011;37829;50.370;30.428;2022-12-07T12:26:50;35.70;;;22.17;;
51754;SDS011;37829;50.370;30.428;2022-12-07T12:27:54;35.58;;;20.75;;
51754;SDS011;37829;50.370;30.428;2022-12-07T12:28:56;33.40;;;21.40;;
51754;SDS011;37829;50.370;30.428;2022-12-07T12:30:01;36.47;;;21.45;;
51754;SDS011;37829;50.370;30.428;2022-12-07T12:31:07;36.60;;;23.17;;
51754;SDS011;37829;50.370;30.428;2022-12-07T12:32:12;36.55;;;22.50;;
51754;SDS011;37829;50.370;30.428;2022-12-07T12:33:15;35.47;;;20.42;;
51754;SDS011;37829;50.370;30.428;2022-12-07T12:34:30;40.42;;;23.40;;
51754;SDS011;37829;50.370;30.428;2022-12-07T12:35:32;39.95;;;23.13;;
51754;SDS011;37829;50.370;30.428;2022-12-07T12:36:44;34.53;;;21.20;;
51754;SDS011;37829;50.370;30.428;2022-12-07T12:37:46;31.50;;;20.50;;
51754;SDS011;37829;50.370;30.428;2022-12-07T12:38:48;37.70;;;24.10;;
51754;SDS011;37829;50.370;30.428;2022-12-07T12:41:05;36.63;;;20.27;;
51754;SDS011;37829;50.370;30.428;2022-12-07T12:42:17;41.60;;;24.83;;
51754;SDS011;37829;50.370;30.428;2022-12-07T12:44:38;40.90;;;24.02;;
51754;SDS011;37829;50.370;30.428;2022-12-07T12:45:40;37.63;;;21.95;;
51754;SDS011;37829;50.370;30.428;2022-12-07T12:46:48;41.27;;;24.57;;
51754;SDS011;37829;50.370;30.428;2022-12-07T12:49:13;37.08;;;22.92;;
51754;SDS011;37829;50.370;30.428;2022-12-07T12:50:19;35.85;;;18.92;;
51754;SDS011;37829;50.370;30.428;2022-12-07T12:51:35;32.78;;;23.45;;
51754;SDS011;37829;50.370;30.428;2022-12-07T12:52:49;35.40;;;19.20;;
51754;SDS011;37829;50.370;30.428;2022-12-07T12:53:51;36.60;;;22.02;;
51754;SDS011;37829;50.370;30.428;2022-12-07T12:54:57;39.17;;;24.15;;
51754;SDS011;37829;50.370;30.428;2022-12-07T12:56:07;35.67;;;19.35;;
51754;SDS011;37829;50.370;30.428;2022-12-07T12:57:12;37.80;;;22.60;;
51754;SDS011;37829;50.370;30.428;2022-12-07T12:58:29;36.17;;;23.00;;
51754;SDS011;37829;50.370;30.428;2022-12-07T12:59:30;31.77;;;19.15;;
51754;SDS011;37829;50.370;30.428;2022-12-07T13:01:40;30.77;;;17.73;;
51754;SDS011;37829;50.370;30.428;2022-12-07T13:02:47;36.55;;;22.60;;
51754;SDS011;37829;50.370;30.428;2022-12-07T13:03:52;32.85;;;21.00;;
51754;SDS011;37829;50.370;30.428;2022-12-07T13:04:54;35.17;;;19.40;;
51754;SDS011;37829;50.370;30.428;2022-12-07T13:07:12;36.85;;;19.23;;
51754;SDS011;37829;50.370;30.428;2022-12-07T13:08:14;41.88;;;25.00;;
51754;SDS011;37829;50.370;30.428;2022-12-07T13:09:19;38.15;;;23.02;;
51754;SDS011;37829;50.370;30.428;2022-12-07T13:11:38;38.35;;;18.48;;
51754;SDS011;37829;50.370;30.428;2022-12-07T13:12:42;40.38;;;24.27;;
51754;SDS011;37829;50.370;30.428;2022-12-07T13:13:43;43.17;;;25.30;;
51754;SDS011;37829;50.370;30.428;2022-12-07T13:14:54;41.67;;;24.90;;
51754;SDS011;37829;50.370;30.428;2022-12-07T13:17:12;34.83;;;17.02;;
51754;SDS011;37829;50.370;30.428;2022-12-07T13:18:34;40.30;;;23.40;;
51754;SDS011;37829;50.370;30.428;2022-12-07T13:21:59;37.25;;;19.88;;
51754;SDS011;37829;50.370;30.428;2022-12-07T13:23:00;39.00;;;25.37;;
51754;SDS011;37829;50.370;30.428;2022-12-07T13:24:06;45.88;;;26.35;;
51754;SDS011;37829;50.370;30.428;2022-12-07T13:25:09;42.58;;;20.50;;
51754;SDS011;37829;50.370;30.428;2022-12-07T13:26:15;43.47;;;26.83;;
51754;SDS011;37829;50.370;30.428;2022-12-07T13:27:18;44.53;;;26.42;;
51754;SDS011;37829;50.370;30.428;2022-12-07T13:28:19;44.90;;;26.27;;
51754;SDS011;37829;50.370;30.428;2022-12-07T13:29:21;42.30;;;23.73;;
51754;SDS011;37829;50.370;30.428;2022-12-07T13:31:29;40.30;;;19.42;;
51754;SDS011;37829;50.370;30.428;2022-12-07T13:32:31;44.25;;;26.00;;
51754;SDS011;37829;50.370;30.428;2022-12-07T13:33:32;41.67;;;25.73;;
51754;SDS011;37829;50.370;30.428;2022-12-07T13:34:35;36.00;;;18.55;;
51754;SDS011;37829;50.370;30.428;2022-12-07T13:36:38;37.03;;;18.13;;
51754;SDS011;37829;50.370;30.428;2022-12-07T13:37:39;33.55;;;22.80;;
51754;SDS011;37829;50.370;30.428;2022-12-07T13:38:47;38.57;;;24.30;;
51754;SDS011;37829;50.370;30.428;2022-12-07T13:39:50;30.80;;;18.08;;
51754;SDS011;37829;50.370;30.428;2022-12-07T13:41:01;37.97;;;23.40;;
51754;SDS011;37829;50.370;30.428;2022-12-07T13:42:08;33.40;;;17.95;;
51754;SDS011;37829;50.370;30.428;2022-12-07T13:43:13;35.38;;;22.90;;
51754;SDS011;37829;50.370;30.428;2022-12-07T13:44:15;34.78;;;21.88;;
51754;SDS011;37829;50.370;30.428;2022-12-07T13:45:20;41.08;;;24.73;;
51754;SDS011;37829;50.370;30.428;2022-12-07T13:46:24;30.55;;;16.98;;
51754;SDS011;37829;50.370;30.428;2022-12-07T13:47:28;35.30;;;22.13;;
51754;SDS011;37829;50.370;30.428;2022-12-07T13:48:33;31.92;;;20.13;;
51754;SDS011;37829;50.370;30.428;2022-12-07T13:49:37;32.35;;;22.00;;
51754;SDS011;37829;50.370;30.428;2022-12-07T13:50:38;34.03;;;19.52;;
51754;SDS011;37829;50.370;30.428;2022-12-07T13:51:39;35.07;;;21.90;;
51754;SDS011;37829;50.370;30.428;2022-12-07T13:52:43;36.13;;;22.10;;
51754;SDS011;37829;50.370;30.428;2022-12-07T13:53:46;41.17;;;23.70;;
51754;SDS011;37829;50.370;30.428;2022-12-07T13:54:47;37.63;;;21.25;;
51754;SDS011;37829;50.370;30.428;2022-12-07T13:55:50;36.38;;;23.80;;
51754;SDS011;37829;50.370;30.428;2022-12-07T13:56:54;34.40;;;20.38;;
51754;SDS011;37829;50.370;30.428;2022-12-07T13:57:56;38.22;;;24.52;;
51754;SDS011;37829;50.370;30.428;2022-12-07T13:58:57;38.30;;;20.87;;
51754;SDS011;37829;50.370;30.428;2022-12-07T13:59:58;37.33;;;23.42;;
51754;SDS011;37829;50.370;30.428;2022-12-07T14:00:59;38.95;;;23.10;;
51754;SDS011;37829;50.370;30.428;2022-12-07T14:02:00;35.60;;;19.55;;
51754;SDS011;37829;50.370;30.428;2022-12-07T14:03:02;37.30;;;23.23;;
51754;SDS011;37829;50.370;30.428;2022-12-07T14:04:17;37.65;;;21.55;;
51754;SDS011;37829;50.370;30.428;2022-12-07T14:05:23;33.63;;;18.95;;
51754;SDS011;37829;50.370;30.428;2022-12-07T14:06:24;36.75;;;21.92;;
51754;SDS011;37829;50.370;30.428;2022-12-07T14:07:27;36.50;;;21.00;;
51754;SDS011;37829;50.370;30.428;2022-12-07T14:08:29;32.88;;;20.85;;
51754;SDS011;37829;50.370;30.428;2022-12-07T14:09:30;34.92;;;22.75;;
51754;SDS011;37829;50.370;30.428;2022-12-07T14:10:32;37.53;;;21.80;;
51754;SDS011;37829;50.370;30.428;2022-12-07T14:12:36;31.83;;;17.15;;
51754;SDS011;37829;50.370;30.428;2022-12-07T14:13:38;42.08;;;24.08;;
51754;SDS011;37829;50.370;30.428;2022-12-07T14:14:45;33.38;;;18.98;;
51754;SDS011;37829;50.370;30.428;2022-12-07T14:15:49;36.92;;;21.88;;
51754;SDS011;37829;50.370;30.428;2022-12-07T14:16:57;33.60;;;19.20;;
51754;SDS011;37829;50.370;30.428;2022-12-07T14:17:59;35.42;;;20.05;;
51754;SDS011;37829;50.370;30.428;2022-12-07T14:19:04;35.45;;;21.85;;
51754;SDS011;37829;50.370;30.428;2022-12-07T14:21:22;35.05;;;21.73;;
51754;SDS011;37829;50.370;30.428;2022-12-07T14:22:25;38.92;;;21.40;;
51754;SDS011;37829;50.370;30.428;2022-12-07T14:23:27;35.20;;;20.35;;
51754;SDS011;37829;50.370;30.428;2022-12-07T14:24:28;40.10;;;24.90;;
51754;SDS011;37829;50.370;30.428;2022-12-07T14:25:32;40.17;;;25.80;;
51754;SDS011;37829;50.370;30.428;2022-12-07T14:26:33;38.40;;;21.42;;
51754;SDS011;37829;50.370;30.428;2022-12-07T14:27:34;36.77;;;21.87;;
51754;SDS011;37829;50.370;30.428;2022-12-07T14:28:37;37.42;;;18.88;;
51754;SDS011;37829;50.370;30.428;2022-12-07T14:29:38;34.95;;;21.98;;
51754;SDS011;37829;50.370;30.428;2022-12-07T14:30:39;49.93;;;30.27;;
51754;SDS011;37829;50.370;30.428;2022-12-07T14:31:42;43.85;;;22.75;;
51754;SDS011;37829;50.370;30.428;2022-12-07T14:32:43;43.63;;;26.40;;
51754;SDS011;37829;50.370;30.428;2022-12-07T14:33:48;39.53;;;24.10;;
51754;SDS011;37829;50.370;30.428;2022-12-07T14:34:53;41.07;;;26.43;;